createdAt,value
2022-12-17T00:01:06.985Z,24.52
2022-12-17T00:03:53.036Z,27.15
2022-12-17T00:06:45.408Z,30.35
2022-12-17T00:09:32.795Z,33.00
2022-12-17T00:12:18.098Z,26.42
2022-12-17T00:15:03.388Z,33.85
2022-12-17T00:17:52.047Z,30.92
2022-12-17T00:20:37.748Z,31.88
2022-12-17T00:23:27.304Z,29.30
2022-12-17T00:26:15.026Z,25.33
2022-12-17T00:29:00.442Z,26.95
2022-12-17T00:31:48.461Z,27.20
2022-12-17T00:34:34.212Z,27.52
2022-12-17T00:37:19.668Z,24.02
2022-12-17T00:40:05.697Z,25.40
2022-12-17T00:42:50.661Z,26.77
2022-12-17T00:45:36.114Z,25.80
2022-12-17T00:48:21.570Z,27.85
2022-12-17T00:51:07.436Z,28.80
2022-12-17T00:53:52.782Z,32.22
2022-12-17T00:56:37.981Z,25.25
2022-12-17T00:59:24.175Z,27.58
2022-12-17T01:02:09.344Z,29.65
2022-12-17T01:04:55.300Z,28.33
2022-12-17T01:07:42.497Z,27.63
2022-12-17T01:10:28.434Z,30.98
2022-12-17T01:13:13.687Z,26.45
2022-12-17T01:15:58.956Z,24.85
2022-12-17T01:18:44.334Z,23.08
2022-12-17T01:21:29.932Z,32.22
2022-12-17T01:24:14.778Z,33.13
2022-12-17T01:27:00.177Z,38.10
2022-12-17T01:29:45.108Z,32.33
2022-12-17T01:32:30.552Z,27.15
2022-12-17T01:35:15.670Z,32.00
2022-12-17T01:38:00.749Z,27.13
2022-12-17T01:40:46.158Z,25.83
2022-12-17T01:43:31.417Z,25.85
2022-12-17T01:46:17.431Z,23.30
2022-12-17T01:49:06.156Z,29.02
2022-12-17T01:51:52.825Z,22.67
2022-12-17T01:54:38.517Z,26.45
2022-12-17T01:57:25.968Z,29.83
2022-12-17T02:00:22.913Z,30.42
2022-12-17T02:03:08.041Z,41.78
2022-12-17T02:06:07.865Z,32.50
2022-12-17T02:09:04.357Z,31.98
2022-12-17T02:12:10.714Z,31.08
2022-12-17T02:15:04.396Z,31.05
2022-12-17T02:17:58.838Z,32.35
2022-12-17T02:20:53.305Z,30.60
2022-12-17T02:24:13.288Z,26.73
2022-12-17T02:27:02.888Z,27.73
2022-12-17T02:29:52.440Z,34.83
2022-12-17T02:32:38.969Z,30.25
2022-12-17T02:35:31.906Z,29.13
2022-12-17T02:38:17.222Z,31.60
2022-12-17T02:41:06.260Z,28.58
2022-12-17T02:43:53.830Z,33.05
2022-12-17T02:46:40.156Z,25.55
2022-12-17T02:49:25.283Z,27.17
2022-12-17T02:52:13.260Z,27.05
2022-12-17T02:54:58.590Z,28.27
2022-12-17T02:57:45.768Z,29.48
2022-12-17T03:00:33.288Z,26.98
2022-12-17T03:03:18.707Z,24.70
2022-12-17T03:06:03.898Z,28.55
2022-12-17T03:08:49.193Z,26.23
2022-12-17T03:11:35.878Z,31.02
2022-12-17T03:14:21.126Z,27.13
2022-12-17T03:17:06.426Z,30.80
2022-12-17T03:19:51.533Z,27.00
2022-12-17T03:22:36.947Z,29.92
2022-12-17T03:25:22.117Z,28.08
2022-12-17T03:28:07.231Z,26.85
2022-12-17T03:30:52.428Z,27.85
2022-12-17T03:33:37.972Z,32.35
2022-12-17T03:36:23.616Z,31.85
2022-12-17T03:39:08.766Z,28.15
2022-12-17T03:41:53.918Z,27.00
2022-12-17T03:44:39.158Z,29.08
2022-12-17T03:47:24.590Z,24.02
2022-12-17T03:50:09.944Z,26.73
2022-12-17T03:52:55.191Z,32.78
2022-12-17T03:55:40.519Z,23.75
2022-12-17T03:58:25.574Z,25.60
2022-12-17T04:01:10.597Z,30.80
2022-12-17T04:03:55.981Z,29.35
2022-12-17T04:06:41.095Z,30.05
2022-12-17T04:09:26.152Z,31.52
2022-12-17T04:12:11.756Z,30.23
2022-12-17T04:14:57.245Z,26.15
2022-12-17T04:17:42.369Z,27.77
2022-12-17T04:20:28.143Z,29.75
2022-12-17T04:23:13.123Z,27.33
2022-12-17T04:25:58.287Z,27.67
2022-12-17T04:28:43.580Z,30.90
2022-12-17T04:31:28.846Z,29.90
2022-12-17T04:34:14.285Z,31.80
2022-12-17T04:36:59.377Z,28.10
2022-12-17T04:39:44.499Z,28.75
2022-12-17T04:42:29.548Z,35.22
2022-12-17T04:45:14.468Z,27.92
2022-12-17T04:47:59.600Z,30.58
2022-12-17T04:50:44.697Z,34.60
2022-12-17T04:53:29.921Z,30.85
2022-12-17T04:56:14.952Z,32.00
2022-12-17T04:59:00.191Z,37.20
2022-12-17T05:01:45.475Z,32.45
2022-12-17T05:04:30.769Z,34.10
2022-12-17T05:07:15.981Z,33.40
2022-12-17T05:10:01.109Z,31.20
2022-12-17T05:12:46.331Z,34.83
2022-12-17T05:15:31.538Z,27.80
2022-12-17T05:18:27.200Z,27.35
2022-12-17T05:21:12.335Z,35.75
2022-12-17T05:23:57.568Z,38.88
2022-12-17T05:26:45.837Z,37.33
2022-12-17T05:29:31.747Z,38.58
2022-12-17T05:32:17.525Z,38.33
2022-12-17T05:35:02.870Z,37.70
2022-12-17T05:37:48.177Z,39.60
2022-12-17T05:40:33.486Z,41.72
2022-12-17T05:43:20.930Z,32.10
2022-12-17T05:46:06.641Z,33.35
2022-12-17T05:48:53.616Z,36.63
2022-12-17T05:51:39.756Z,29.10
2022-12-17T05:54:26.181Z,29.45
2022-12-17T05:57:11.468Z,30.83
2022-12-17T05:59:56.621Z,29.85
2022-12-17T06:02:42.564Z,31.75
2022-12-17T06:05:28.294Z,26.73
2022-12-17T06:08:24.530Z,29.05
2022-12-17T06:11:09.764Z,32.78
2022-12-17T06:13:55.347Z,26.30
2022-12-17T06:16:40.922Z,34.22
2022-12-17T06:19:26.242Z,29.85
2022-12-17T06:22:11.363Z,35.28
2022-12-17T06:24:56.530Z,35.08
2022-12-17T06:27:42.038Z,34.83
2022-12-17T06:30:27.866Z,31.25
2022-12-17T06:33:25.728Z,27.95
2022-12-17T06:36:18.100Z,23.63
2022-12-17T06:39:06.734Z,28.65
2022-12-17T06:41:52.020Z,24.02
2022-12-17T06:44:37.947Z,23.10
2022-12-17T06:47:23.160Z,25.25
2022-12-17T06:50:08.370Z,28.23
2022-12-17T06:52:53.535Z,25.98
2022-12-17T06:55:38.459Z,29.70
2022-12-17T06:58:23.547Z,28.55
2022-12-17T07:01:09.821Z,28.13
2022-12-17T07:03:55.138Z,28.38
2022-12-17T07:06:40.777Z,30.83
2022-12-17T07:09:26.089Z,23.70
2022-12-17T07:12:11.384Z,24.83
2022-12-17T07:14:56.748Z,22.50
2022-12-17T07:17:42.069Z,20.83
2022-12-17T07:20:27.985Z,21.40
2022-12-17T07:23:16.494Z,21.55
2022-12-17T07:26:01.851Z,26.70
2022-12-17T07:28:46.989Z,23.58
2022-12-17T07:31:45.938Z,24.15
2022-12-17T07:34:31.104Z,25.63
2022-12-17T07:37:20.429Z,26.77
2022-12-17T07:40:07.573Z,30.48
2022-12-17T07:42:53.014Z,27.65
2022-12-17T07:45:38.315Z,31.25
2022-12-17T07:48:24.043Z,35.50
2022-12-17T07:51:09.654Z,32.17
2022-12-17T07:53:54.995Z,38.03
2022-12-17T07:56:42.867Z,38.47
2022-12-17T07:59:28.412Z,44.13
2022-12-17T08:02:13.902Z,34.92
2022-12-17T08:05:12.893Z,37.70
2022-12-17T08:07:58.356Z,40.17
2022-12-17T08:10:43.646Z,36.13
2022-12-17T08:13:29.016Z,40.53
2022-12-17T08:16:14.061Z,41.55
2022-12-17T08:18:59.438Z,37.97
2022-12-17T08:21:44.582Z,33.70
2022-12-17T08:24:29.771Z,36.80
2022-12-17T08:27:14.995Z,41.17
2022-12-17T08:30:00.804Z,36.05
2022-12-17T08:32:46.286Z,41.85
2022-12-17T08:35:31.479Z,36.95
2022-12-17T08:38:21.296Z,43.40
2022-12-17T08:41:06.939Z,37.85
2022-12-17T08:43:52.248Z,40.72
2022-12-17T08:46:38.129Z,42.58
2022-12-17T08:49:23.487Z,46.00
2022-12-17T08:52:08.804Z,40.85
2022-12-17T08:54:54.273Z,47.17
2022-12-17T08:57:39.495Z,47.90
2022-12-17T09:00:25.314Z,39.40
2022-12-17T09:03:15.849Z,42.25
2022-12-17T09:06:01.849Z,39.05
2022-12-17T09:08:50.318Z,45.45
2022-12-17T09:11:36.276Z,47.53
2022-12-17T09:14:22.008Z,44.10
2022-12-17T09:17:07.700Z,47.88
2022-12-17T09:19:53.432Z,49.67
2022-12-17T09:22:38.665Z,52.92
2022-12-17T09:25:24.447Z,53.22
2022-12-17T09:28:09.888Z,42.85
2022-12-17T09:30:55.138Z,44.47
2022-12-17T09:33:40.680Z,53.80
2022-12-17T09:36:26.574Z,51.20
2022-12-17T09:39:12.270Z,55.63
2022-12-17T09:42:06.601Z,51.72
2022-12-17T09:45:06.191Z,60.65
2022-12-17T09:50:55.852Z,53.83
2022-12-17T09:54:05.515Z,50.28
2022-12-17T09:59:47.425Z,55.67
2022-12-17T10:02:43.982Z,77.35
2022-12-17T10:05:39.599Z,68.88
2022-12-17T10:08:32.516Z,70.55
2022-12-17T10:11:34.391Z,85.35
2022-12-17T10:14:22.039Z,73.90
2022-12-17T10:17:11.855Z,74.53
2022-12-17T10:20:01.387Z,76.25
2022-12-17T10:22:47.016Z,98.40
2022-12-17T10:25:37.543Z,108.45
2022-12-17T10:28:40.242Z,99.72
2022-12-17T10:31:33.553Z,92.78
2022-12-17T10:34:24.751Z,94.95
2022-12-17T10:37:16.259Z,82.55
2022-12-17T10:40:01.770Z,89.38
2022-12-17T10:42:49.727Z,94.82
2022-12-17T10:45:49.820Z,91.97
2022-12-17T10:48:50.259Z,79.10
2022-12-17T10:51:43.676Z,96.15
2022-12-17T10:54:49.565Z,87.70
2022-12-17T10:57:56.108Z,87.05
2022-12-17T11:00:50.176Z,93.18
2022-12-17T11:04:05.576Z,89.15
2022-12-17T11:06:59.342Z,85.18
2022-12-17T11:10:08.584Z,85.13
2022-12-17T11:13:03.134Z,78.28
2022-12-17T11:15:54.161Z,103.75
2022-12-17T11:18:45.972Z,94.05
2022-12-17T11:21:40.030Z,91.55
2022-12-17T11:24:31.733Z,88.82
2022-12-17T11:27:18.130Z,85.30
2022-12-17T11:30:03.575Z,88.68
2022-12-17T11:32:48.611Z,97.72
2022-12-17T11:35:47.123Z,92.25
2022-12-17T11:38:48.833Z,97.90
2022-12-17T11:41:44.664Z,86.05
2022-12-17T11:44:55.781Z,92.25
2022-12-17T11:48:02.902Z,90.10
2022-12-17T11:51:03.382Z,90.38
2022-12-17T11:54:21.533Z,89.43
2022-12-17T11:57:31.487Z,87.72
2022-12-17T12:00:25.046Z,104.70
2022-12-17T12:03:41.611Z,108.95
2022-12-17T12:06:51.911Z,100.72
2022-12-17T12:10:02.283Z,92.30
2022-12-17T12:13:29.471Z,93.18
2022-12-17T12:16:17.569Z,85.93
2022-12-17T12:19:23.238Z,79.80
2022-12-17T12:22:19.495Z,85.18
2022-12-17T12:25:35.751Z,78.95
2022-12-17T12:28:36.744Z,74.55
2022-12-17T12:31:40.872Z,76.60
2022-12-17T12:34:53.751Z,82.63
2022-12-17T12:37:39.321Z,77.97
2022-12-17T12:40:33.921Z,80.07
2022-12-17T12:43:31.475Z,87.82
2022-12-17T12:46:23.592Z,80.93
2022-12-17T12:49:27.432Z,77.85
2022-12-17T12:52:15.260Z,78.07
2022-12-17T12:55:03.561Z,73.10
2022-12-17T12:57:53.835Z,74.15
2022-12-17T13:00:53.023Z,89.90
2022-12-17T13:03:54.599Z,77.88
2022-12-17T13:06:43.216Z,80.00
2022-12-17T13:09:15.932Z,75.93
2022-12-17T13:11:53.725Z,70.72
2022-12-17T13:14:26.291Z,71.38
2022-12-17T13:17:16.430Z,73.15
2022-12-17T13:20:00.694Z,64.60
2022-12-17T13:22:28.880Z,64.80
2022-12-17T13:25:16.252Z,70.18
2022-12-17T13:27:43.331Z,71.53
2022-12-17T13:30:18.756Z,71.90
2022-12-17T13:33:05.586Z,73.57
2022-12-17T13:35:53.695Z,66.10
2022-12-17T13:38:39.525Z,67.97
2022-12-17T13:41:14.582Z,72.18
2022-12-17T13:43:44.829Z,71.97
2022-12-17T13:46:23.415Z,76.28
2022-12-17T13:49:01.934Z,67.07
2022-12-17T13:51:31.161Z,71.22
2022-12-17T13:54:03.743Z,70.60
2022-12-17T13:56:36.878Z,64.65
2022-12-17T13:59:09.157Z,65.72
2022-12-17T14:01:46.518Z,71.10
2022-12-17T14:04:30.160Z,65.53
2022-12-17T14:07:00.887Z,68.68
2022-12-17T14:09:38.810Z,63.72
2022-12-17T14:12:25.418Z,74.38
2022-12-17T14:15:05.034Z,83.65
2022-12-17T14:17:44.108Z,73.10
2022-12-17T14:20:17.121Z,52.28
2022-12-17T14:22:51.406Z,74.78
2022-12-17T14:25:30.425Z,70.65
2022-12-17T14:27:58.781Z,71.93
2022-12-17T14:31:24.220Z,75.30
2022-12-17T14:33:34.771Z,64.30
2022-12-17T14:36:07.272Z,72.68
2022-12-17T14:38:48.503Z,65.10
2022-12-17T14:41:33.969Z,64.25
2022-12-17T14:44:02.593Z,73.32
2022-12-17T14:46:30.570Z,71.03
2022-12-17T14:49:02.269Z,67.00
2022-12-17T14:51:41.030Z,80.35
2022-12-17T14:54:13.807Z,62.33
2022-12-17T14:56:47.005Z,67.00
2022-12-17T14:59:36.633Z,68.53
2022-12-17T15:04:33.468Z,66.28
2022-12-17T15:07:03.801Z,71.38
2022-12-17T15:09:30.577Z,70.70
2022-12-17T15:11:57.505Z,66.05
2022-12-17T15:14:24.421Z,72.53
2022-12-17T15:16:51.180Z,67.47
2022-12-17T15:19:18.107Z,72.80
2022-12-17T15:21:45.008Z,71.88
2022-12-17T15:24:13.491Z,77.82
2022-12-17T15:26:40.735Z,87.72
2022-12-17T15:29:07.699Z,85.88
2022-12-17T15:31:35.801Z,86.47
2022-12-17T15:34:02.834Z,86.60
2022-12-17T15:36:31.921Z,79.90
2022-12-17T15:38:59.121Z,94.43
2022-12-17T15:41:44.617Z,86.85
2022-12-17T15:44:11.945Z,85.22
2022-12-17T15:46:39.772Z,84.57
2022-12-17T15:49:06.617Z,96.63
2022-12-17T15:51:33.508Z,86.20
2022-12-17T15:54:00.275Z,89.20
2022-12-17T15:56:28.398Z,98.60
2022-12-17T15:58:59.120Z,98.93
2022-12-17T16:01:25.927Z,99.30
2022-12-17T16:03:54.098Z,92.90
2022-12-17T16:06:21.288Z,83.70
2022-12-17T16:08:47.886Z,83.40
2022-12-17T16:11:16.177Z,74.60
2022-12-17T16:13:43.321Z,68.45
2022-12-17T16:16:10.295Z,60.17
2022-12-17T16:18:38.724Z,57.05
2022-12-17T16:21:08.347Z,50.57
2022-12-17T16:23:36.175Z,57.08
2022-12-17T16:26:05.505Z,64.57
2022-12-17T16:28:32.626Z,60.67
2022-12-17T16:31:08.701Z,68.20
2022-12-17T16:33:37.651Z,64.43
2022-12-17T16:36:05.722Z,62.97
2022-12-17T16:38:36.136Z,64.05
2022-12-17T16:41:03.646Z,64.65
2022-12-17T16:43:34.142Z,65.75
2022-12-17T16:46:01.784Z,64.25
2022-12-17T16:48:28.574Z,62.03
2022-12-17T16:50:55.529Z,69.78
2022-12-17T16:53:22.246Z,59.90
2022-12-17T16:55:49.896Z,70.75
2022-12-17T16:58:17.938Z,68.07
2022-12-17T17:00:46.443Z,65.22
2022-12-17T17:03:13.749Z,71.05
2022-12-17T17:05:41.272Z,68.85
2022-12-17T17:08:08.106Z,62.25
2022-12-17T17:10:37.915Z,55.10
2022-12-17T17:13:04.850Z,55.33
2022-12-17T17:15:31.908Z,65.22
2022-12-17T17:18:01.851Z,66.95
2022-12-17T17:20:32.537Z,66.45
2022-12-17T17:22:59.620Z,63.15
2022-12-17T17:25:43.821Z,63.80
2022-12-17T17:28:13.611Z,62.72
2022-12-17T17:30:40.274Z,68.00
2022-12-17T17:33:08.751Z,67.40
2022-12-17T17:35:35.560Z,74.00
2022-12-17T17:38:02.233Z,62.20
2022-12-17T17:40:29.008Z,64.60
2022-12-17T17:42:55.818Z,65.30
2022-12-17T17:45:22.565Z,61.33
2022-12-17T17:47:49.425Z,66.15
2022-12-17T17:50:16.397Z,67.22
2022-12-17T17:52:43.120Z,66.30
2022-12-17T17:55:10.119Z,67.20
2022-12-17T17:57:36.808Z,63.83
2022-12-17T18:00:05.501Z,59.00
2022-12-17T18:02:32.348Z,51.63
2022-12-17T18:04:59.369Z,60.10
2022-12-17T18:07:27.332Z,64.05
2022-12-17T18:09:55.224Z,66.57
2022-12-17T18:12:40.443Z,70.45
2022-12-17T18:15:16.984Z,65.53
2022-12-17T18:17:46.389Z,63.70
2022-12-17T18:20:13.781Z,64.57
2022-12-17T18:22:40.616Z,66.88
2022-12-17T18:25:07.729Z,61.72
2022-12-17T18:27:34.407Z,64.38
2022-12-17T18:30:01.036Z,57.03
2022-12-17T18:32:27.830Z,59.78
2022-12-17T18:34:54.758Z,60.78
2022-12-17T18:37:21.552Z,67.40
2022-12-17T18:39:49.029Z,56.33
2022-12-17T18:42:34.808Z,59.35
2022-12-17T18:45:01.883Z,58.85
2022-12-17T18:47:28.887Z,68.53
2022-12-17T18:49:55.549Z,62.58
2022-12-17T18:52:24.542Z,62.28
2022-12-17T18:54:51.212Z,62.83
2022-12-17T18:57:17.904Z,68.53
2022-12-17T18:59:44.527Z,65.05
2022-12-17T19:02:13.909Z,59.05
2022-12-17T19:04:41.844Z,62.13
2022-12-17T19:07:08.619Z,59.80
2022-12-17T19:09:36.111Z,58.35
2022-12-17T19:12:08.336Z,64.32
2022-12-17T19:14:36.563Z,57.60
2022-12-17T19:17:05.140Z,66.78
2022-12-17T19:19:32.755Z,63.92
2022-12-17T19:22:00.222Z,66.18
2022-12-17T19:24:27.441Z,64.35
2022-12-17T19:26:54.839Z,62.70
2022-12-17T19:29:21.967Z,66.30
2022-12-17T19:31:49.138Z,56.88
2022-12-17T19:34:18.900Z,62.72
2022-12-17T19:36:46.505Z,66.93
2022-12-17T19:39:19.225Z,59.95
2022-12-17T19:41:46.590Z,69.07
2022-12-17T19:44:20.030Z,65.43
2022-12-17T19:46:49.098Z,61.33
2022-12-17T19:49:17.504Z,70.05
2022-12-17T19:51:45.147Z,74.05
2022-12-17T19:54:14.780Z,65.63
2022-12-17T19:56:42.869Z,74.47
2022-12-17T19:59:11.704Z,72.80
2022-12-17T20:01:45.188Z,55.22
2022-12-17T20:04:13.518Z,65.57
2022-12-17T20:06:41.655Z,63.38
2022-12-17T20:09:08.477Z,69.80
2022-12-17T20:11:36.348Z,70.55
2022-12-17T20:14:09.375Z,71.90
2022-12-17T20:16:39.121Z,76.00
2022-12-17T20:19:12.930Z,82.60
2022-12-17T20:21:40.244Z,73.97
2022-12-17T20:24:07.679Z,83.32
2022-12-17T20:26:37.100Z,79.88
2022-12-17T20:29:05.458Z,74.05
2022-12-17T20:31:32.920Z,83.57
2022-12-17T20:34:06.944Z,78.57
2022-12-17T20:36:34.128Z,79.43
2022-12-17T20:39:02.664Z,73.22
2022-12-17T20:41:30.753Z,67.38
2022-12-17T20:43:58.221Z,68.45
2022-12-17T20:46:25.569Z,75.30
2022-12-17T20:48:52.701Z,69.30
2022-12-17T20:51:28.575Z,69.50
2022-12-17T20:53:57.052Z,64.13
2022-12-17T20:56:29.997Z,74.55
2022-12-17T20:59:00.151Z,72.88
2022-12-17T21:01:30.056Z,66.65
2022-12-17T21:03:58.298Z,68.70
2022-12-17T21:06:28.095Z,71.40
2022-12-17T21:08:56.259Z,67.22
2022-12-17T21:11:25.704Z,72.18
2022-12-17T21:13:53.278Z,68.35
2022-12-17T21:16:29.625Z,69.47
2022-12-17T21:18:58.378Z,75.20
2022-12-17T21:21:30.085Z,72.28
2022-12-17T21:23:57.848Z,68.28
2022-12-17T21:26:32.905Z,71.80
2022-12-17T21:29:01.591Z,68.63
2022-12-17T21:31:30.055Z,74.43
2022-12-17T21:33:59.401Z,68.03
2022-12-17T21:36:28.486Z,70.38
2022-12-17T21:38:55.196Z,72.35
2022-12-17T21:41:25.727Z,70.07
2022-12-17T21:44:05.124Z,66.95
2022-12-17T21:46:33.144Z,62.97
2022-12-17T21:49:01.309Z,69.93
2022-12-17T21:51:29.508Z,59.65
2022-12-17T21:53:58.677Z,67.50
2022-12-17T21:56:26.235Z,67.13
2022-12-17T21:59:00.845Z,77.70
2022-12-17T22:01:31.685Z,69.93
2022-12-17T22:04:00.215Z,70.25
2022-12-17T22:06:32.001Z,70.32
2022-12-17T22:09:15.277Z,62.95
2022-12-17T22:12:11.638Z,74.45
2022-12-17T22:14:38.513Z,67.88
2022-12-17T22:17:06.571Z,64.60
2022-12-17T22:19:33.900Z,79.13
2022-12-17T22:22:00.755Z,63.40
2022-12-17T22:24:27.891Z,73.93
2022-12-17T22:27:00.944Z,73.80
2022-12-17T22:29:46.674Z,74.95
2022-12-17T22:32:32.585Z,72.47
2022-12-17T22:35:30.331Z,63.00
2022-12-17T22:40:40.873Z,62.60
2022-12-17T22:44:31.563Z,70.35
2022-12-17T22:44:42.465Z,68.45
2022-12-17T22:46:17.155Z,72.72
2022-12-17T22:48:44.264Z,73.35
2022-12-17T22:51:16.921Z,73.60
2022-12-17T22:53:47.242Z,69.88
2022-12-17T22:56:25.607Z,69.00
2022-12-17T22:59:00.891Z,70.60
2022-12-17T23:01:28.033Z,73.50
2022-12-17T23:03:59.960Z,74.63
2022-12-17T23:06:27.551Z,73.18
2022-12-17T23:08:54.674Z,66.10
2022-12-17T23:11:27.399Z,68.18
2022-12-17T23:13:55.556Z,68.60
2022-12-17T23:16:22.746Z,64.45
2022-12-17T23:18:51.596Z,61.75
2022-12-17T23:21:21.984Z,51.97
2022-12-17T23:23:48.835Z,64.10
2022-12-17T23:26:22.162Z,61.22
2022-12-17T23:28:52.531Z,68.35
2022-12-17T23:31:21.359Z,58.78
2022-12-17T23:33:48.476Z,65.10
2022-12-17T23:36:21.356Z,67.70
2022-12-17T23:38:49.403Z,60.95
2022-12-17T23:41:21.970Z,61.15
2022-12-17T23:43:50.026Z,72.10
2022-12-17T23:46:18.313Z,59.28
2022-12-17T23:48:46.629Z,64.05
2022-12-17T23:51:14.853Z,62.35
2022-12-17T23:53:43.204Z,65.57
2022-12-17T23:56:20.589Z,67.50
2022-12-17T23:58:48.269Z,67.85
